sensor_id;sensor_type;location;lat;lon;timestamp;P1;durP1;ratioP1;P2;durP2;ratioP2
51214;SDS011;63849;47.546;19.254;2023-02-17T00:00:31;92.03;;;51.45;;
51214;SDS011;63849;47.546;19.254;2023-02-17T00:02:57;89.20;;;51.25;;
51214;SDS011;63849;47.546;19.254;2023-02-17T00:05:24;96.45;;;52.60;;
51214;SDS011;63849;47.546;19.254;2023-02-17T00:07:50;94.13;;;52.20;;
51214;SDS011;63849;47.546;19.254;2023-02-17T00:10:16;94.80;;;52.22;;
51214;SDS011;63849;47.546;19.254;2023-02-17T00:12:43;97.88;;;53.67;;
51214;SDS011;63849;47.546;19.254;2023-02-17T00:15:09;92.20;;;51.85;;
51214;SDS011;63849;47.546;19.254;2023-02-17T00:17:35;89.85;;;50.10;;
51214;SDS011;63849;47.546;19.254;2023-02-17T00:20:01;88.05;;;50.50;;
51214;SDS011;63849;47.546;19.254;2023-02-17T00:22:27;85.28;;;48.45;;
51214;SDS011;63849;47.546;19.254;2023-02-17T00:24:53;83.28;;;46.50;;
51214;SDS011;63849;47.546;19.254;2023-02-17T00:27:19;83.18;;;47.75;;
51214;SDS011;63849;47.546;19.254;2023-02-17T00:29:45;86.38;;;48.10;;
51214;SDS011;63849;47.546;19.254;2023-02-17T00:32:11;85.90;;;48.78;;
51214;SDS011;63849;47.546;19.254;2023-02-17T00:34:36;81.95;;;46.60;;
51214;SDS011;63849;47.546;19.254;2023-02-17T00:37:02;81.63;;;47.42;;
51214;SDS011;63849;47.546;19.254;2023-02-17T00:39:29;91.32;;;50.53;;
51214;SDS011;63849;47.546;19.254;2023-02-17T00:41:55;84.45;;;46.55;;
51214;SDS011;63849;47.546;19.254;2023-02-17T00:44:22;89.28;;;51.20;;
51214;SDS011;63849;47.546;19.254;2023-02-17T00:46:48;88.18;;;48.72;;
51214;SDS011;63849;47.546;19.254;2023-02-17T00:49:15;84.53;;;48.35;;
51214;SDS011;63849;47.546;19.254;2023-02-17T00:51:43;87.63;;;48.90;;
51214;SDS011;63849;47.546;19.254;2023-02-17T00:54:09;87.90;;;48.92;;
51214;SDS011;63849;47.546;19.254;2023-02-17T00:56:35;83.18;;;49.92;;
51214;SDS011;63849;47.546;19.254;2023-02-17T00:59:01;91.47;;;50.70;;
51214;SDS011;63849;47.546;19.254;2023-02-17T01:01:27;88.35;;;51.35;;
51214;SDS011;63849;47.546;19.254;2023-02-17T01:03:53;88.30;;;51.67;;
51214;SDS011;63849;47.546;19.254;2023-02-17T01:06:23;88.38;;;49.30;;
51214;SDS011;63849;47.546;19.254;2023-02-17T01:08:51;79.87;;;49.30;;
51214;SDS011;63849;47.546;19.254;2023-02-17T01:11:18;83.97;;;49.53;;
51214;SDS011;63849;47.546;19.254;2023-02-17T01:13:45;85.00;;;48.70;;
51214;SDS011;63849;47.546;19.254;2023-02-17T01:16:18;86.30;;;49.63;;
51214;SDS011;63849;47.546;19.254;2023-02-17T01:18:49;87.72;;;49.38;;
51214;SDS011;63849;47.546;19.254;2023-02-17T01:21:17;86.40;;;49.90;;
51214;SDS011;63849;47.546;19.254;2023-02-17T01:23:43;87.43;;;51.08;;
51214;SDS011;63849;47.546;19.254;2023-02-17T01:26:14;88.35;;;50.67;;
51214;SDS011;63849;47.546;19.254;2023-02-17T01:28:40;85.00;;;50.30;;
51214;SDS011;63849;47.546;19.254;2023-02-17T01:31:07;81.55;;;49.25;;
51214;SDS011;63849;47.546;19.254;2023-02-17T01:33:34;95.13;;;53.63;;
51214;SDS011;63849;47.546;19.254;2023-02-17T01:36:01;84.30;;;50.53;;
51214;SDS011;63849;47.546;19.254;2023-02-17T01:38:28;87.22;;;51.30;;
51214;SDS011;63849;47.546;19.254;2023-02-17T01:40:54;83.07;;;48.90;;
51214;SDS011;63849;47.546;19.254;2023-02-17T01:43:20;79.70;;;48.83;;
51214;SDS011;63849;47.546;19.254;2023-02-17T01:45:55;83.40;;;49.75;;
51214;SDS011;63849;47.546;19.254;2023-02-17T01:50:59;89.05;;;50.22;;
51214;SDS011;63849;47.546;19.254;2023-02-17T01:53:33;82.07;;;49.75;;
51214;SDS011;63849;47.546;19.254;2023-02-17T01:56:05;84.88;;;49.47;;
51214;SDS011;63849;47.546;19.254;2023-02-17T01:58:32;83.35;;;50.85;;
51214;SDS011;63849;47.546;19.254;2023-02-17T02:00:59;82.78;;;49.63;;
51214;SDS011;63849;47.546;19.254;2023-02-17T02:03:27;78.30;;;47.78;;
51214;SDS011;63849;47.546;19.254;2023-02-17T02:05:56;87.45;;;50.67;;
51214;SDS011;63849;47.546;19.254;2023-02-17T02:08:24;85.57;;;47.80;;
51214;SDS011;63849;47.546;19.254;2023-02-17T02:10:54;83.35;;;48.95;;
51214;SDS011;63849;47.546;19.254;2023-02-17T02:13:20;82.30;;;51.63;;
51214;SDS011;63849;47.546;19.254;2023-02-17T02:15:56;89.05;;;52.67;;
51214;SDS011;63849;47.546;19.254;2023-02-17T02:18:43;88.97;;;51.38;;
51214;SDS011;63849;47.546;19.254;2023-02-17T02:32:48;91.78;;;52.95;;
51214;SDS011;63849;47.546;19.254;2023-02-17T02:38:16;95.85;;;55.95;;
51214;SDS011;63849;47.546;19.254;2023-02-17T02:40:53;95.05;;;55.22;;
51214;SDS011;63849;47.546;19.254;2023-02-17T02:43:31;91.75;;;53.50;;
51214;SDS011;63849;47.546;19.254;2023-02-17T02:45:57;95.07;;;55.70;;
51214;SDS011;63849;47.546;19.254;2023-02-17T02:48:24;89.28;;;52.45;;
51214;SDS011;63849;47.546;19.254;2023-02-17T02:50:58;93.22;;;52.28;;
51214;SDS011;63849;47.546;19.254;2023-02-17T02:53:57;94.03;;;53.20;;
51214;SDS011;63849;47.546;19.254;2023-02-17T02:56:48;91.55;;;52.35;;
51214;SDS011;63849;47.546;19.254;2023-02-17T03:02:19;82.13;;;47.40;;
51214;SDS011;63849;47.546;19.254;2023-02-17T03:04:59;86.45;;;50.00;;
51214;SDS011;63849;47.546;19.254;2023-02-17T03:07:33;88.25;;;51.45;;
51214;SDS011;63849;47.546;19.254;2023-02-17T03:10:02;89.10;;;50.83;;
51214;SDS011;63849;47.546;19.254;2023-02-17T03:12:29;88.85;;;50.10;;
51214;SDS011;63849;47.546;19.254;2023-02-17T03:14:59;83.32;;;48.95;;
51214;SDS011;63849;47.546;19.254;2023-02-17T03:17:29;87.90;;;50.15;;
51214;SDS011;63849;47.546;19.254;2023-02-17T03:19:57;86.40;;;52.33;;
51214;SDS011;63849;47.546;19.254;2023-02-17T03:22:25;89.47;;;51.33;;
51214;SDS011;63849;47.546;19.254;2023-02-17T03:24:55;82.70;;;48.00;;
51214;SDS011;63849;47.546;19.254;2023-02-17T03:27:24;100.72;;;57.60;;
51214;SDS011;63849;47.546;19.254;2023-02-17T03:29:51;100.78;;;56.80;;
51214;SDS011;63849;47.546;19.254;2023-02-17T03:32:16;97.95;;;55.13;;
51214;SDS011;63849;47.546;19.254;2023-02-17T03:34:42;93.53;;;53.30;;
51214;SDS011;63849;47.546;19.254;2023-02-17T03:37:08;87.47;;;49.65;;
51214;SDS011;63849;47.546;19.254;2023-02-17T03:39:34;88.03;;;51.17;;
51214;SDS011;63849;47.546;19.254;2023-02-17T03:41:59;85.82;;;48.90;;
51214;SDS011;63849;47.546;19.254;2023-02-17T03:44:26;85.65;;;50.90;;
51214;SDS011;63849;47.546;19.254;2023-02-17T03:46:52;89.03;;;50.53;;
51214;SDS011;63849;47.546;19.254;2023-02-17T03:49:17;89.68;;;51.65;;
51214;SDS011;63849;47.546;19.254;2023-02-17T03:51:43;91.38;;;49.90;;
51214;SDS011;63849;47.546;19.254;2023-02-17T03:54:09;85.05;;;48.60;;
51214;SDS011;63849;47.546;19.254;2023-02-17T03:56:35;87.50;;;49.53;;
51214;SDS011;63849;47.546;19.254;2023-02-17T03:59:00;83.72;;;47.95;;
51214;SDS011;63849;47.546;19.254;2023-02-17T04:01:27;81.05;;;48.00;;
51214;SDS011;63849;47.546;19.254;2023-02-17T04:03:54;86.47;;;49.38;;
51214;SDS011;63849;47.546;19.254;2023-02-17T04:06:20;84.53;;;49.53;;
51214;SDS011;63849;47.546;19.254;2023-02-17T04:08:46;82.38;;;47.55;;
51214;SDS011;63849;47.546;19.254;2023-02-17T04:11:12;81.43;;;47.28;;
51214;SDS011;63849;47.546;19.254;2023-02-17T04:13:38;78.28;;;46.38;;
51214;SDS011;63849;47.546;19.254;2023-02-17T04:16:05;81.35;;;46.33;;
51214;SDS011;63849;47.546;19.254;2023-02-17T04:18:33;79.70;;;46.00;;
51214;SDS011;63849;47.546;19.254;2023-02-17T04:20:59;75.85;;;45.97;;
51214;SDS011;63849;47.546;19.254;2023-02-17T04:23:25;78.15;;;46.97;;
51214;SDS011;63849;47.546;19.254;2023-02-17T04:25:51;78.45;;;46.30;;
51214;SDS011;63849;47.546;19.254;2023-02-17T04:28:17;76.15;;;44.65;;
51214;SDS011;63849;47.546;19.254;2023-02-17T04:30:43;76.35;;;42.72;;
51214;SDS011;63849;47.546;19.254;2023-02-17T04:33:10;78.45;;;44.42;;
51214;SDS011;63849;47.546;19.254;2023-02-17T04:35:36;76.63;;;44.25;;
51214;SDS011;63849;47.546;19.254;2023-02-17T04:38:02;73.35;;;41.83;;
51214;SDS011;63849;47.546;19.254;2023-02-17T04:40:29;75.63;;;45.30;;
51214;SDS011;63849;47.546;19.254;2023-02-17T04:42:55;79.00;;;45.80;;
51214;SDS011;63849;47.546;19.254;2023-02-17T04:45:21;80.68;;;47.13;;
51214;SDS011;63849;47.546;19.254;2023-02-17T04:47:47;81.20;;;46.92;;
51214;SDS011;63849;47.546;19.254;2023-02-17T04:50:12;79.00;;;44.22;;
51214;SDS011;63849;47.546;19.254;2023-02-17T04:52:38;81.28;;;47.05;;
51214;SDS011;63849;47.546;19.254;2023-02-17T04:55:04;75.43;;;45.03;;
51214;SDS011;63849;47.546;19.254;2023-02-17T04:57:30;85.03;;;47.15;;
51214;SDS011;63849;47.546;19.254;2023-02-17T04:59:56;84.38;;;48.95;;
51214;SDS011;63849;47.546;19.254;2023-02-17T05:02:22;83.38;;;48.95;;
51214;SDS011;63849;47.546;19.254;2023-02-17T05:04:51;82.25;;;48.72;;
51214;SDS011;63849;47.546;19.254;2023-02-17T05:07:18;84.72;;;47.17;;
51214;SDS011;63849;47.546;19.254;2023-02-17T05:09:44;84.32;;;48.38;;
51214;SDS011;63849;47.546;19.254;2023-02-17T05:12:10;78.82;;;46.28;;
51214;SDS011;63849;47.546;19.254;2023-02-17T05:14:35;81.32;;;46.53;;
51214;SDS011;63849;47.546;19.254;2023-02-17T05:17:01;76.95;;;45.75;;
51214;SDS011;63849;47.546;19.254;2023-02-17T05:19:27;79.82;;;43.72;;
51214;SDS011;63849;47.546;19.254;2023-02-17T05:21:53;70.93;;;42.25;;
51214;SDS011;63849;47.546;19.254;2023-02-17T05:24:19;71.18;;;42.33;;
51214;SDS011;63849;47.546;19.254;2023-02-17T05:26:44;66.82;;;41.20;;
51214;SDS011;63849;47.546;19.254;2023-02-17T05:29:10;70.13;;;41.25;;
51214;SDS011;63849;47.546;19.254;2023-02-17T05:31:36;68.78;;;41.42;;
51214;SDS011;63849;47.546;19.254;2023-02-17T05:34:02;74.57;;;43.40;;
51214;SDS011;63849;47.546;19.254;2023-02-17T05:36:28;73.65;;;42.58;;
51214;SDS011;63849;47.546;19.254;2023-02-17T05:38:55;75.93;;;43.63;;
51214;SDS011;63849;47.546;19.254;2023-02-17T05:41:20;78.68;;;42.55;;
51214;SDS011;63849;47.546;19.254;2023-02-17T05:43:46;79.63;;;44.05;;
51214;SDS011;63849;47.546;19.254;2023-02-17T05:46:13;80.35;;;44.42;;
51214;SDS011;63849;47.546;19.254;2023-02-17T05:48:39;72.50;;;41.35;;
51214;SDS011;63849;47.546;19.254;2023-02-17T05:51:05;63.30;;;35.85;;
51214;SDS011;63849;47.546;19.254;2023-02-17T05:53:30;59.30;;;36.45;;
51214;SDS011;63849;47.546;19.254;2023-02-17T05:55:56;60.38;;;37.10;;
51214;SDS011;63849;47.546;19.254;2023-02-17T05:58:22;58.45;;;35.95;;
51214;SDS011;63849;47.546;19.254;2023-02-17T06:00:48;57.92;;;35.78;;
51214;SDS011;63849;47.546;19.254;2023-02-17T06:03:14;54.83;;;35.13;;
51214;SDS011;63849;47.546;19.254;2023-02-17T06:05:40;60.92;;;34.95;;
51214;SDS011;63849;47.546;19.254;2023-02-17T06:08:06;54.13;;;35.20;;
51214;SDS011;63849;47.546;19.254;2023-02-17T06:10:32;55.53;;;35.25;;
51214;SDS011;63849;47.546;19.254;2023-02-17T06:12:58;65.50;;;38.20;;
51214;SDS011;63849;47.546;19.254;2023-02-17T06:15:24;68.20;;;40.35;;
51214;SDS011;63849;47.546;19.254;2023-02-17T06:17:50;64.68;;;39.58;;
51214;SDS011;63849;47.546;19.254;2023-02-17T06:20:15;76.35;;;47.38;;
51214;SDS011;63849;47.546;19.254;2023-02-17T06:22:41;81.15;;;48.33;;
51214;SDS011;63849;47.546;19.254;2023-02-17T06:25:07;78.13;;;48.72;;
51214;SDS011;63849;47.546;19.254;2023-02-17T06:27:33;78.50;;;48.35;;
51214;SDS011;63849;47.546;19.254;2023-02-17T06:30:00;90.43;;;50.95;;
51214;SDS011;63849;47.546;19.254;2023-02-17T06:32:25;153.18;;;84.47;;
51214;SDS011;63849;47.546;19.254;2023-02-17T06:34:52;113.72;;;65.20;;
51214;SDS011;63849;47.546;19.254;2023-02-17T06:37:17;105.10;;;62.35;;
51214;SDS011;63849;47.546;19.254;2023-02-17T06:39:43;89.80;;;55.33;;
51214;SDS011;63849;47.546;19.254;2023-02-17T06:42:09;88.03;;;53.25;;
51214;SDS011;63849;47.546;19.254;2023-02-17T06:44:35;81.88;;;50.88;;
51214;SDS011;63849;47.546;19.254;2023-02-17T06:47:01;78.53;;;48.20;;
51214;SDS011;63849;47.546;19.254;2023-02-17T06:49:26;82.82;;;48.88;;
51214;SDS011;63849;47.546;19.254;2023-02-17T06:51:52;74.28;;;46.63;;
51214;SDS011;63849;47.546;19.254;2023-02-17T06:54:18;70.63;;;43.05;;
51214;SDS011;63849;47.546;19.254;2023-02-17T06:56:44;62.67;;;40.00;;
51214;SDS011;63849;47.546;19.254;2023-02-17T06:59:09;62.08;;;39.45;;
51214;SDS011;63849;47.546;19.254;2023-02-17T07:01:35;71.95;;;46.22;;
51214;SDS011;63849;47.546;19.254;2023-02-17T07:04:01;74.28;;;46.80;;
51214;SDS011;63849;47.546;19.254;2023-02-17T07:06:27;78.75;;;47.88;;
51214;SDS011;63849;47.546;19.254;2023-02-17T07:08:54;76.47;;;47.05;;
51214;SDS011;63849;47.546;19.254;2023-02-17T07:11:20;78.72;;;48.72;;
51214;SDS011;63849;47.546;19.254;2023-02-17T07:13:45;80.78;;;49.28;;
51214;SDS011;63849;47.546;19.254;2023-02-17T07:16:12;94.28;;;57.80;;
51214;SDS011;63849;47.546;19.254;2023-02-17T07:18:39;188.60;;;117.75;;
51214;SDS011;63849;47.546;19.254;2023-02-17T07:21:05;206.65;;;133.30;;
51214;SDS011;63849;47.546;19.254;2023-02-17T07:23:32;179.88;;;118.95;;
51214;SDS011;63849;47.546;19.254;2023-02-17T07:26:02;155.82;;;102.72;;
51214;SDS011;63849;47.546;19.254;2023-02-17T07:28:29;137.38;;;90.03;;
51214;SDS011;63849;47.546;19.254;2023-02-17T07:30:55;127.15;;;79.45;;
51214;SDS011;63849;47.546;19.254;2023-02-17T07:33:21;106.25;;;67.78;;
51214;SDS011;63849;47.546;19.254;2023-02-17T07:35:46;98.55;;;61.28;;
51214;SDS011;63849;47.546;19.254;2023-02-17T07:38:13;93.28;;;57.75;;
51214;SDS011;63849;47.546;19.254;2023-02-17T07:40:39;88.50;;;55.67;;
51214;SDS011;63849;47.546;19.254;2023-02-17T07:43:05;83.82;;;54.33;;
51214;SDS011;63849;47.546;19.254;2023-02-17T07:45:31;90.15;;;56.80;;
51214;SDS011;63849;47.546;19.254;2023-02-17T07:47:57;90.53;;;56.38;;
51214;SDS011;63849;47.546;19.254;2023-02-17T07:50:23;86.35;;;55.58;;
51214;SDS011;63849;47.546;19.254;2023-02-17T07:52:49;89.00;;;57.63;;
51214;SDS011;63849;47.546;19.254;2023-02-17T07:55:16;101.95;;;64.40;;
51214;SDS011;63849;47.546;19.254;2023-02-17T07:57:43;113.63;;;68.28;;
51214;SDS011;63849;47.546;19.254;2023-02-17T08:00:09;109.50;;;64.55;;
51214;SDS011;63849;47.546;19.254;2023-02-17T08:02:35;118.78;;;70.93;;
51214;SDS011;63849;47.546;19.254;2023-02-17T08:05:01;123.72;;;69.88;;
51214;SDS011;63849;47.546;19.254;2023-02-17T08:07:27;120.57;;;64.88;;
51214;SDS011;63849;47.546;19.254;2023-02-17T08:09:56;112.50;;;62.53;;
51214;SDS011;63849;47.546;19.254;2023-02-17T08:12:41;91.57;;;53.67;;
51214;SDS011;63849;47.546;19.254;2023-02-17T08:15:25;82.60;;;53.35;;
51214;SDS011;63849;47.546;19.254;2023-02-17T08:17:51;82.10;;;53.60;;
51214;SDS011;63849;47.546;19.254;2023-02-17T08:20:17;90.95;;;55.50;;
51214;SDS011;63849;47.546;19.254;2023-02-17T08:22:43;91.70;;;55.58;;
51214;SDS011;63849;47.546;19.254;2023-02-17T08:25:09;94.10;;;57.10;;
51214;SDS011;63849;47.546;19.254;2023-02-17T08:27:35;85.63;;;54.03;;
51214;SDS011;63849;47.546;19.254;2023-02-17T08:30:01;91.53;;;55.05;;
51214;SDS011;63849;47.546;19.254;2023-02-17T08:32:27;90.50;;;57.17;;
51214;SDS011;63849;47.546;19.254;2023-02-17T08:34:56;85.40;;;53.00;;
51214;SDS011;63849;47.546;19.254;2023-02-17T08:37:22;83.00;;;53.67;;
51214;SDS011;63849;47.546;19.254;2023-02-17T08:39:47;84.93;;;55.40;;
51214;SDS011;63849;47.546;19.254;2023-02-17T08:42:13;83.57;;;54.03;;
51214;SDS011;63849;47.546;19.254;2023-02-17T08:44:39;77.15;;;50.05;;
51214;SDS011;63849;47.546;19.254;2023-02-17T08:47:05;74.68;;;47.25;;
51214;SDS011;63849;47.546;19.254;2023-02-17T08:49:31;72.20;;;45.53;;
51214;SDS011;63849;47.546;19.254;2023-02-17T08:51:58;71.43;;;47.35;;
51214;SDS011;63849;47.546;19.254;2023-02-17T08:54:24;87.00;;;52.08;;
51214;SDS011;63849;47.546;19.254;2023-02-17T08:56:49;90.60;;;52.95;;
51214;SDS011;63849;47.546;19.254;2023-02-17T08:59:16;74.07;;;45.10;;
51214;SDS011;63849;47.546;19.254;2023-02-17T09:01:42;73.93;;;44.42;;
51214;SDS011;63849;47.546;19.254;2023-02-17T09:04:10;64.10;;;39.85;;
51214;SDS011;63849;47.546;19.254;2023-02-17T09:09:11;60.17;;;39.20;;
51214;SDS011;63849;47.546;19.254;2023-02-17T09:11:38;58.30;;;36.35;;
51214;SDS011;63849;47.546;19.254;2023-02-17T09:14:05;65.00;;;36.85;;
51214;SDS011;63849;47.546;19.254;2023-02-17T09:16:31;61.55;;;37.55;;
51214;SDS011;63849;47.546;19.254;2023-02-17T09:18:57;55.60;;;37.42;;
51214;SDS011;63849;47.546;19.254;2023-02-17T09:21:23;54.88;;;35.38;;
51214;SDS011;63849;47.546;19.254;2023-02-17T09:23:49;55.85;;;35.72;;
51214;SDS011;63849;47.546;19.254;2023-02-17T09:26:16;59.15;;;37.20;;
51214;SDS011;63849;47.546;19.254;2023-02-17T09:28:43;56.30;;;36.03;;
51214;SDS011;63849;47.546;19.254;2023-02-17T09:33:48;61.63;;;39.13;;
51214;SDS011;63849;47.546;19.254;2023-02-17T09:36:19;57.22;;;36.22;;
51214;SDS011;63849;47.546;19.254;2023-02-17T09:38:47;55.70;;;33.17;;
51214;SDS011;63849;47.546;19.254;2023-02-17T09:43:57;49.30;;;31.23;;
51214;SDS011;63849;47.546;19.254;2023-02-17T09:46:37;45.17;;;28.05;;
51214;SDS011;63849;47.546;19.254;2023-02-17T09:49:13;40.53;;;25.60;;
51214;SDS011;63849;47.546;19.254;2023-02-17T09:54:29;43.63;;;26.65;;
51214;SDS011;63849;47.546;19.254;2023-02-17T09:57:01;39.65;;;24.30;;
51214;SDS011;63849;47.546;19.254;2023-02-17T09:59:32;39.80;;;25.40;;
51214;SDS011;63849;47.546;19.254;2023-02-17T10:02:09;37.13;;;24.05;;
51214;SDS011;63849;47.546;19.254;2023-02-17T10:04:41;37.95;;;24.35;;
51214;SDS011;63849;47.546;19.254;2023-02-17T10:07:32;40.10;;;24.48;;
51214;SDS011;63849;47.546;19.254;2023-02-17T10:10:10;40.63;;;25.60;;
51214;SDS011;63849;47.546;19.254;2023-02-17T10:12:48;39.13;;;24.33;;
51214;SDS011;63849;47.546;19.254;2023-02-17T10:15:20;38.33;;;23.92;;
51214;SDS011;63849;47.546;19.254;2023-02-17T10:23:21;38.22;;;23.05;;
51214;SDS011;63849;47.546;19.254;2023-02-17T10:28:56;43.60;;;25.70;;
51214;SDS011;63849;47.546;19.254;2023-02-17T10:42:41;39.50;;;27.10;;
51214;SDS011;63849;47.546;19.254;2023-02-17T10:47:59;49.42;;;32.65;;
51214;SDS011;63849;47.546;19.254;2023-02-17T10:50:46;45.35;;;27.98;;
51214;SDS011;63849;47.546;19.254;2023-02-17T10:53:14;45.40;;;30.73;;
51214;SDS011;63849;47.546;19.254;2023-02-17T10:56:27;46.83;;;30.33;;
51214;SDS011;63849;47.546;19.254;2023-02-17T11:01:14;45.97;;;32.03;;
51214;SDS011;63849;47.546;19.254;2023-02-17T11:03:40;51.20;;;31.70;;
51214;SDS011;63849;47.546;19.254;2023-02-17T11:06:16;45.25;;;30.02;;
51214;SDS011;63849;47.546;19.254;2023-02-17T11:11:18;43.08;;;28.85;;
51214;SDS011;63849;47.546;19.254;2023-02-17T11:16:43;46.00;;;31.70;;
51214;SDS011;63849;47.546;19.254;2023-02-17T11:21:52;49.33;;;31.83;;
51214;SDS011;63849;47.546;19.254;2023-02-17T11:24:20;51.25;;;32.95;;
51214;SDS011;63849;47.546;19.254;2023-02-17T11:29:35;45.92;;;31.50;;
51214;SDS011;63849;47.546;19.254;2023-02-17T11:32:05;45.85;;;31.23;;
51214;SDS011;63849;47.546;19.254;2023-02-17T11:34:34;43.50;;;29.67;;
51214;SDS011;63849;47.546;19.254;2023-02-17T11:37:18;44.75;;;30.20;;
51214;SDS011;63849;47.546;19.254;2023-02-17T11:39:48;38.70;;;27.30;;
51214;SDS011;63849;47.546;19.254;2023-02-17T11:42:20;43.65;;;26.80;;
51214;SDS011;63849;47.546;19.254;2023-02-17T11:44:52;39.63;;;27.38;;
51214;SDS011;63849;47.546;19.254;2023-02-17T11:50:21;43.08;;;28.23;;
51214;SDS011;63849;47.546;19.254;2023-02-17T11:58:53;40.63;;;27.15;;
51214;SDS011;63849;47.546;19.254;2023-02-17T12:04:06;38.67;;;26.42;;
51214;SDS011;63849;47.546;19.254;2023-02-17T12:12:08;47.85;;;29.13;;
51214;SDS011;63849;47.546;19.254;2023-02-17T12:24:29;50.78;;;30.92;;
51214;SDS011;63849;47.546;19.254;2023-02-17T12:29:54;50.88;;;32.20;;
51214;SDS011;63849;47.546;19.254;2023-02-17T12:32:38;57.05;;;34.75;;
51214;SDS011;63849;47.546;19.254;2023-02-17T12:35:17;53.80;;;35.47;;
51214;SDS011;63849;47.546;19.254;2023-02-17T12:37:57;59.70;;;39.97;;
51214;SDS011;63849;47.546;19.254;2023-02-17T12:43:00;67.78;;;48.75;;
51214;SDS011;63849;47.546;19.254;2023-02-17T12:45:37;65.75;;;41.80;;
51214;SDS011;63849;47.546;19.254;2023-02-17T12:53:44;64.50;;;41.65;;
51214;SDS011;63849;47.546;19.254;2023-02-17T12:58:53;61.40;;;41.85;;
51214;SDS011;63849;47.546;19.254;2023-02-17T13:01:23;66.55;;;43.97;;
51214;SDS011;63849;47.546;19.254;2023-02-17T13:03:53;65.70;;;41.17;;
51214;SDS011;63849;47.546;19.254;2023-02-17T13:12:09;60.50;;;42.13;;
51214;SDS011;63849;47.546;19.254;2023-02-17T13:14:40;70.25;;;44.20;;
51214;SDS011;63849;47.546;19.254;2023-02-17T13:18:13;65.60;;;42.95;;
51214;SDS011;63849;47.546;19.254;2023-02-17T13:23:09;66.82;;;44.50;;
51214;SDS011;63849;47.546;19.254;2023-02-17T13:25:37;70.95;;;45.67;;
51214;SDS011;63849;47.546;19.254;2023-02-17T13:33:38;74.53;;;48.97;;
51214;SDS011;63849;47.546;19.254;2023-02-17T13:36:42;75.93;;;50.67;;
51214;SDS011;63849;47.546;19.254;2023-02-17T13:39:05;76.13;;;48.90;;
51214;SDS011;63849;47.546;19.254;2023-02-17T13:41:50;70.20;;;48.47;;
51214;SDS011;63849;47.546;19.254;2023-02-17T13:46:43;79.97;;;51.67;;
51214;SDS011;63849;47.546;19.254;2023-02-17T13:49:14;76.68;;;51.40;;
51214;SDS011;63849;47.546;19.254;2023-02-17T13:51:46;76.43;;;52.90;;
51214;SDS011;63849;47.546;19.254;2023-02-17T13:54:21;79.88;;;53.92;;
51214;SDS011;63849;47.546;19.254;2023-02-17T13:56:51;83.75;;;53.08;;
51214;SDS011;63849;47.546;19.254;2023-02-17T13:59:22;75.95;;;54.50;;
51214;SDS011;63849;47.546;19.254;2023-02-17T14:01:49;82.32;;;55.10;;
51214;SDS011;63849;47.546;19.254;2023-02-17T14:06:47;79.45;;;54.60;;
51214;SDS011;63849;47.546;19.254;2023-02-17T14:09:27;74.85;;;52.53;;
51214;SDS011;63849;47.546;19.254;2023-02-17T14:11:55;80.93;;;53.63;;
51214;SDS011;63849;47.546;19.254;2023-02-17T14:14:25;78.40;;;55.28;;
51214;SDS011;63849;47.546;19.254;2023-02-17T14:16:59;82.25;;;55.90;;
51214;SDS011;63849;47.546;19.254;2023-02-17T14:19:27;81.07;;;55.20;;
51214;SDS011;63849;47.546;19.254;2023-02-17T14:24:31;77.93;;;52.75;;
51214;SDS011;63849;47.546;19.254;2023-02-17T14:27:03;78.80;;;52.83;;
51214;SDS011;63849;47.546;19.254;2023-02-17T14:29:45;81.78;;;53.95;;
51214;SDS011;63849;47.546;19.254;2023-02-17T14:32:31;81.45;;;55.03;;
51214;SDS011;63849;47.546;19.254;2023-02-17T14:35:06;73.32;;;51.03;;
51214;SDS011;63849;47.546;19.254;2023-02-17T14:37:38;80.43;;;54.03;;
51214;SDS011;63849;47.546;19.254;2023-02-17T14:40:05;78.43;;;55.05;;
51214;SDS011;63849;47.546;19.254;2023-02-17T14:42:43;75.95;;;54.08;;
51214;SDS011;63849;47.546;19.254;2023-02-17T14:45:09;85.13;;;57.17;;
51214;SDS011;63849;47.546;19.254;2023-02-17T14:47:35;78.32;;;55.25;;
51214;SDS011;63849;47.546;19.254;2023-02-17T14:50:01;87.63;;;58.45;;
51214;SDS011;63849;47.546;19.254;2023-02-17T14:52:27;108.22;;;74.30;;
51214;SDS011;63849;47.546;19.254;2023-02-17T14:54:53;115.60;;;78.43;;
51214;SDS011;63849;47.546;19.254;2023-02-17T14:57:20;112.72;;;78.15;;
51214;SDS011;63849;47.546;19.254;2023-02-17T14:59:51;104.65;;;72.57;;
51214;SDS011;63849;47.546;19.254;2023-02-17T15:02:22;108.75;;;74.18;;
51214;SDS011;63849;47.546;19.254;2023-02-17T15:04:48;109.20;;;77.90;;
51214;SDS011;63849;47.546;19.254;2023-02-17T15:07:17;92.50;;;64.40;;
51214;SDS011;63849;47.546;19.254;2023-02-17T15:09:44;88.82;;;59.50;;
51214;SDS011;63849;47.546;19.254;2023-02-17T15:12:15;84.70;;;56.60;;
51214;SDS011;63849;47.546;19.254;2023-02-17T15:14:43;84.40;;;56.83;;
51214;SDS011;63849;47.546;19.254;2023-02-17T15:17:11;84.57;;;57.35;;
51214;SDS011;63849;47.546;19.254;2023-02-17T15:19:37;83.90;;;56.95;;
51214;SDS011;63849;47.546;19.254;2023-02-17T15:22:03;81.28;;;56.17;;
51214;SDS011;63849;47.546;19.254;2023-02-17T15:24:30;85.57;;;56.67;;
51214;SDS011;63849;47.546;19.254;2023-02-17T15:26:58;95.72;;;66.32;;
51214;SDS011;63849;47.546;19.254;2023-02-17T15:29:25;101.35;;;69.88;;
51214;SDS011;63849;47.546;19.254;2023-02-17T15:31:52;97.65;;;68.72;;
51214;SDS011;63849;47.546;19.254;2023-02-17T15:34:20;94.97;;;65.03;;
51214;SDS011;63849;47.546;19.254;2023-02-17T15:36:49;85.40;;;60.50;;
51214;SDS011;63849;47.546;19.254;2023-02-17T15:39:16;89.88;;;57.55;;
51214;SDS011;63849;47.546;19.254;2023-02-17T15:41:44;80.90;;;54.28;;
51214;SDS011;63849;47.546;19.254;2023-02-17T15:44:13;81.47;;;53.42;;
51214;SDS011;63849;47.546;19.254;2023-02-17T15:46:44;76.68;;;52.05;;
51214;SDS011;63849;47.546;19.254;2023-02-17T15:49:10;79.72;;;51.03;;
51214;SDS011;63849;47.546;19.254;2023-02-17T15:51:37;75.20;;;50.92;;
51214;SDS011;63849;47.546;19.254;2023-02-17T15:54:03;72.95;;;50.67;;
51214;SDS011;63849;47.546;19.254;2023-02-17T15:56:31;70.88;;;48.75;;
51214;SDS011;63849;47.546;19.254;2023-02-17T15:59:17;79.00;;;54.72;;
51214;SDS011;63849;47.546;19.254;2023-02-17T16:01:46;74.40;;;50.50;;
51214;SDS011;63849;47.546;19.254;2023-02-17T16:04:13;72.72;;;49.13;;
51214;SDS011;63849;47.546;19.254;2023-02-17T16:06:39;74.80;;;49.33;;
51214;SDS011;63849;47.546;19.254;2023-02-17T16:09:05;71.05;;;50.28;;
51214;SDS011;63849;47.546;19.254;2023-02-17T16:11:32;78.35;;;54.35;;
51214;SDS011;63849;47.546;19.254;2023-02-17T16:13:59;90.22;;;62.50;;
51214;SDS011;63849;47.546;19.254;2023-02-17T16:16:27;90.78;;;62.53;;
51214;SDS011;63849;47.546;19.254;2023-02-17T16:18:57;86.10;;;60.50;;
51214;SDS011;63849;47.546;19.254;2023-02-17T16:21:24;85.38;;;58.95;;
51214;SDS011;63849;47.546;19.254;2023-02-17T16:23:50;94.90;;;60.20;;
51214;SDS011;63849;47.546;19.254;2023-02-17T16:26:25;84.20;;;57.83;;